createdAt,value
2018-03-25T00:01:06.893Z,24.73
2018-03-25T00:03:42.002Z,28.33
2018-03-25T00:06:16.961Z,27.73
2018-03-25T00:08:51.804Z,28.90
2018-03-25T00:11:26.828Z,26.73
2018-03-25T00:14:02.104Z,30.30
2018-03-25T00:16:36.883Z,25.80
2018-03-25T00:19:12.081Z,25.33
2018-03-25T00:21:47.236Z,32.83
2018-03-25T00:24:22.134Z,27.87
2018-03-25T00:26:57.134Z,23.43
2018-03-25T00:29:32.042Z,28.90
2018-03-25T00:32:07.233Z,32.37
2018-03-25T00:34:42.214Z,28.23
2018-03-25T00:37:17.093Z,29.10
2018-03-25T00:39:52.125Z,25.90
2018-03-25T00:42:26.984Z,25.83
2018-03-25T00:45:02.004Z,28.77
2018-03-25T00:47:36.910Z,25.40
2018-03-25T00:50:11.757Z,28.67
2018-03-25T00:52:46.891Z,29.65
2018-03-25T00:55:21.947Z,25.67
2018-03-25T00:57:57.118Z,30.43
2018-03-25T01:00:31.871Z,26.30
2018-03-25T01:03:07.020Z,28.27
2018-03-25T01:05:41.920Z,31.40
2018-03-25T01:08:16.826Z,24.30
2018-03-25T01:10:51.562Z,25.33
2018-03-25T01:13:26.578Z,28.53
2018-03-25T01:16:10.713Z,35.27
2018-03-25T01:18:45.486Z,29.93
2018-03-25T01:21:20.640Z,27.03
2018-03-25T01:23:55.483Z,27.33
2018-03-25T01:26:30.831Z,30.23
2018-03-25T01:29:06.030Z,26.30
2018-03-25T01:31:40.995Z,27.55
2018-03-25T01:34:16.046Z,28.07
2018-03-25T01:36:51.242Z,23.57
2018-03-25T01:39:26.122Z,28.50
2018-03-25T01:42:01.127Z,34.43
2018-03-25T01:44:35.994Z,28.23
2018-03-25T01:47:10.535Z,34.43
2018-03-25T01:49:45.496Z,27.47
2018-03-25T01:52:20.955Z,25.65
2018-03-25T01:54:55.571Z,32.07
2018-03-25T01:57:30.459Z,27.50
2018-03-25T02:00:04.928Z,30.33
2018-03-25T02:02:40.193Z,27.47
2018-03-25T02:05:15.710Z,31.87
2018-03-25T02:07:51.151Z,26.87
2018-03-25T02:10:26.086Z,27.47
2018-03-25T02:13:01.413Z,26.37
2018-03-25T02:15:36.266Z,28.20
2018-03-25T02:18:11.334Z,30.87
2018-03-25T02:20:46.268Z,28.60
2018-03-25T02:23:21.350Z,28.40
2018-03-25T02:25:56.515Z,28.80
2018-03-25T02:28:31.481Z,29.50
2018-03-25T02:31:06.715Z,30.75
2018-03-25T02:33:41.402Z,27.70
2018-03-25T02:36:16.395Z,30.23
2018-03-25T02:38:51.473Z,28.80
2018-03-25T02:41:26.218Z,30.13
2018-03-25T02:44:01.543Z,27.60
2018-03-25T02:46:36.095Z,27.10
2018-03-25T02:49:11.487Z,31.58
2018-03-25T02:51:46.468Z,28.77
2018-03-25T02:54:21.590Z,31.63
2018-03-25T02:56:56.539Z,34.03
2018-03-25T02:59:31.541Z,32.60
2018-03-25T03:02:06.398Z,31.07
2018-03-25T03:04:41.280Z,31.43
2018-03-25T03:07:16.441Z,30.60
2018-03-25T03:09:51.326Z,28.63
2018-03-25T03:12:26.170Z,26.73
2018-03-25T03:15:01.660Z,27.37
2018-03-25T03:17:36.726Z,27.70
2018-03-25T03:20:12.183Z,28.90
2018-03-25T03:22:46.655Z,28.10
2018-03-25T03:25:21.529Z,29.17
2018-03-25T03:27:57.223Z,29.00
2018-03-25T03:30:31.684Z,27.17
2018-03-25T03:33:06.684Z,36.40
2018-03-25T03:35:41.468Z,28.43
2018-03-25T03:38:16.220Z,32.50
2018-03-25T03:40:51.317Z,31.37
2018-03-25T03:43:26.232Z,30.03
2018-03-25T03:46:01.633Z,29.43
2018-03-25T03:48:36.367Z,34.10
2018-03-25T03:51:11.355Z,38.73
2018-03-25T03:53:46.352Z,31.37
2018-03-25T03:56:21.510Z,29.33
2018-03-25T03:58:56.356Z,32.07
2018-03-25T04:01:30.945Z,28.67
2018-03-25T04:04:06.521Z,32.73
2018-03-25T04:06:40.875Z,28.47
2018-03-25T04:09:15.873Z,32.17
2018-03-25T04:11:50.398Z,30.20
2018-03-25T04:14:25.419Z,30.83
2018-03-25T04:17:01.303Z,30.50
2018-03-25T04:19:36.385Z,29.80
2018-03-25T04:22:11.005Z,33.63
2018-03-25T04:24:45.758Z,33.53
2018-03-25T04:27:20.644Z,34.03
2018-03-25T04:29:55.536Z,35.43
2018-03-25T04:32:30.525Z,33.37
2018-03-25T04:35:05.688Z,28.20
2018-03-25T04:37:40.398Z,32.27
2018-03-25T04:40:15.669Z,30.53
2018-03-25T04:42:50.768Z,33.87
2018-03-25T04:45:25.738Z,33.20
2018-03-25T04:48:01.858Z,34.35
2018-03-25T04:50:36.749Z,32.90
2018-03-25T04:53:11.808Z,38.27
2018-03-25T04:55:46.665Z,28.47
2018-03-25T04:58:21.481Z,31.83
2018-03-25T05:00:56.651Z,33.33
2018-03-25T05:03:31.594Z,28.33
2018-03-25T05:06:06.603Z,34.47
2018-03-25T05:08:41.684Z,30.17
2018-03-25T05:11:16.782Z,31.40
2018-03-25T05:13:51.495Z,30.73
2018-03-25T05:16:26.478Z,32.50
2018-03-25T05:19:01.939Z,31.90
2018-03-25T05:21:37.554Z,32.10
2018-03-25T05:24:12.017Z,29.63
2018-03-25T05:26:47.558Z,30.33
2018-03-25T05:29:22.334Z,27.00
2018-03-25T05:31:57.616Z,29.53
2018-03-25T05:34:32.606Z,32.63
2018-03-25T05:37:07.412Z,29.95
2018-03-25T05:39:42.660Z,29.80
2018-03-25T05:42:17.810Z,30.90
2018-03-25T05:44:52.711Z,32.97
2018-03-25T05:47:27.642Z,33.27
2018-03-25T05:50:02.920Z,31.60
2018-03-25T05:52:37.857Z,30.57
2018-03-25T05:55:13.094Z,26.90
2018-03-25T05:57:47.726Z,25.07
2018-03-25T06:00:22.702Z,32.37
2018-03-25T06:02:57.334Z,34.10
2018-03-25T06:05:32.665Z,29.87
2018-03-25T06:08:07.717Z,28.87
2018-03-25T06:10:42.646Z,33.67
2018-03-25T06:13:17.839Z,28.85
2018-03-25T06:15:52.677Z,35.53
2018-03-25T06:18:27.839Z,31.00
2018-03-25T06:21:02.816Z,28.47
2018-03-25T06:23:37.897Z,25.53
2018-03-25T06:26:12.830Z,29.15
2018-03-25T06:28:47.652Z,26.90
2018-03-25T06:31:22.106Z,34.17
2018-03-25T06:33:56.835Z,29.00
2018-03-25T06:36:31.971Z,29.03
2018-03-25T06:39:07.177Z,32.93
2018-03-25T06:41:41.734Z,31.00
2018-03-25T06:44:17.618Z,28.65
2018-03-25T06:46:52.738Z,29.83
2018-03-25T06:49:27.744Z,30.00
2018-03-25T06:52:02.720Z,31.83
2018-03-25T06:54:37.390Z,30.67
2018-03-25T06:57:12.726Z,32.20
2018-03-25T06:59:47.606Z,26.30
2018-03-25T07:02:22.416Z,27.80
2018-03-25T07:04:57.758Z,31.73
2018-03-25T07:07:32.177Z,33.17
2018-03-25T07:10:07.143Z,30.60
2018-03-25T07:12:41.882Z,29.97
2018-03-25T07:15:17.105Z,32.40
2018-03-25T07:17:51.948Z,30.03
2018-03-25T07:20:27.139Z,29.80
2018-03-25T07:23:02.131Z,30.70
2018-03-25T07:25:36.757Z,32.97
2018-03-25T07:28:12.291Z,33.15
2018-03-25T07:30:47.250Z,29.03
2018-03-25T07:33:22.307Z,31.10
2018-03-25T07:35:58.105Z,32.08
2018-03-25T07:38:32.751Z,33.15
2018-03-25T07:41:08.139Z,31.20
2018-03-25T07:43:42.808Z,31.13
2018-03-25T07:46:18.078Z,33.45
2018-03-25T07:48:53.418Z,34.30
2018-03-25T07:51:28.570Z,31.35
2018-03-25T07:54:03.352Z,35.10
2018-03-25T07:56:38.207Z,33.87
2018-03-25T07:59:13.488Z,38.03
2018-03-25T08:01:48.145Z,29.57
2018-03-25T08:04:24.032Z,32.08
2018-03-25T08:06:59.323Z,34.70
2018-03-25T08:09:34.813Z,30.02
2018-03-25T08:12:09.843Z,34.17
2018-03-25T08:14:44.843Z,31.50
2018-03-25T08:17:19.982Z,33.22
2018-03-25T08:19:54.974Z,35.77
2018-03-25T08:22:29.871Z,30.07
2018-03-25T08:25:04.213Z,35.43
2018-03-25T08:27:39.589Z,37.50
2018-03-25T08:30:14.923Z,35.58
2018-03-25T08:32:49.894Z,32.28
2018-03-25T08:35:24.802Z,34.50
2018-03-25T08:38:00.129Z,33.23
2018-03-25T08:40:34.938Z,30.48
2018-03-25T08:43:10.176Z,36.75
2018-03-25T08:45:44.859Z,37.20
2018-03-25T08:48:19.678Z,31.90
2018-03-25T08:50:54.548Z,30.77
2018-03-25T08:53:29.847Z,30.12
2018-03-25T08:56:04.473Z,31.43
2018-03-25T08:58:39.504Z,36.20
2018-03-25T09:01:14.570Z,35.08
2018-03-25T09:03:49.328Z,29.07
2018-03-25T09:06:24.356Z,32.87
2018-03-25T09:08:59.221Z,33.47
2018-03-25T09:11:34.104Z,36.67
2018-03-25T09:14:09.540Z,31.83
2018-03-25T09:16:44.846Z,31.92
2018-03-25T09:19:19.353Z,31.08
2018-03-25T09:21:53.658Z,36.30
2018-03-25T09:24:29.152Z,31.70
2018-03-25T09:27:04.252Z,36.97
2018-03-25T09:29:39.099Z,32.83
2018-03-25T09:32:14.183Z,37.28
2018-03-25T09:34:49.095Z,32.40
2018-03-25T09:37:24.031Z,34.60
2018-03-25T09:39:59.711Z,33.33
2018-03-25T09:42:36.220Z,34.13
2018-03-25T09:45:11.566Z,33.97
2018-03-25T09:47:46.418Z,35.83
2018-03-25T09:50:22.522Z,38.20
2018-03-25T09:52:57.456Z,35.17
2018-03-25T09:55:32.158Z,33.20
2018-03-25T09:58:07.282Z,33.63
2018-03-25T10:00:41.836Z,32.00
2018-03-25T10:03:32.725Z,35.97
2018-03-25T10:06:07.987Z,33.72
2018-03-25T10:08:42.608Z,29.60
2018-03-25T10:11:17.370Z,28.70
2018-03-25T10:13:52.387Z,27.73
2018-03-25T10:16:27.298Z,29.23
2018-03-25T10:19:01.962Z,30.40
2018-03-25T10:21:37.330Z,32.03
2018-03-25T10:27:21.432Z,28.07
2018-03-25T10:29:56.169Z,29.10
2018-03-25T10:32:31.267Z,25.63
2018-03-25T10:35:06.086Z,27.77
2018-03-25T10:37:41.263Z,26.20
2018-03-25T10:40:16.435Z,28.23
2018-03-25T10:42:51.362Z,20.43
2018-03-25T10:45:26.279Z,26.43
2018-03-25T10:48:02.569Z,21.58
2018-03-25T10:50:37.332Z,23.30
2018-03-25T10:53:11.908Z,23.30
2018-03-25T10:55:46.847Z,22.83
2018-03-25T10:58:21.656Z,21.83
2018-03-25T11:00:56.626Z,28.00
2018-03-25T11:03:31.663Z,23.37
2018-03-25T11:06:06.435Z,19.03
2018-03-25T11:08:41.622Z,20.67
2018-03-25T11:11:16.376Z,19.70
2018-03-25T11:13:51.572Z,23.23
2018-03-25T11:16:26.512Z,20.07
2018-03-25T11:19:01.464Z,24.13
2018-03-25T11:21:35.820Z,18.60
2018-03-25T11:24:10.508Z,21.70
2018-03-25T11:26:45.599Z,23.70
2018-03-25T11:29:20.643Z,20.77
2018-03-25T11:31:55.462Z,19.70
2018-03-25T11:34:30.339Z,19.97
2018-03-25T11:37:05.779Z,21.10
2018-03-25T11:39:40.384Z,23.97
2018-03-25T11:42:15.385Z,21.00
2018-03-25T11:44:49.957Z,21.43
2018-03-25T11:47:24.780Z,20.90
2018-03-25T11:49:59.643Z,23.30
2018-03-25T11:52:34.324Z,25.33
2018-03-25T11:55:09.340Z,21.40
2018-03-25T11:57:44.492Z,22.93
2018-03-25T12:00:19.586Z,24.17
2018-03-25T12:02:54.636Z,22.50
2018-03-25T12:05:29.518Z,24.37
2018-03-25T12:08:04.357Z,23.73
2018-03-25T12:10:39.340Z,21.70
2018-03-25T12:13:14.586Z,19.98
2018-03-25T12:15:49.155Z,29.07
2018-03-25T12:18:24.403Z,22.60
2018-03-25T12:20:59.527Z,25.17
2018-03-25T12:23:34.521Z,23.67
2018-03-25T12:26:09.447Z,26.50
2018-03-25T12:28:44.398Z,24.07
2018-03-25T12:31:19.451Z,21.37
2018-03-25T12:33:54.523Z,25.77
2018-03-25T12:36:29.466Z,25.43
2018-03-25T12:39:03.623Z,24.60
2018-03-25T12:41:39.172Z,20.70
2018-03-25T12:44:13.870Z,22.70
2018-03-25T12:46:48.730Z,23.17
2018-03-25T12:49:23.688Z,29.23
2018-03-25T12:51:58.503Z,23.70
2018-03-25T12:54:33.344Z,24.52
2018-03-25T12:57:08.247Z,23.90
2018-03-25T12:59:42.803Z,33.53
2018-03-25T13:02:17.927Z,22.63
2018-03-25T13:04:52.605Z,20.30
2018-03-25T13:07:27.682Z,20.80
2018-03-25T13:10:02.627Z,24.60
2018-03-25T13:12:37.535Z,23.13
2018-03-25T13:15:12.773Z,22.13
2018-03-25T13:17:47.776Z,21.40
2018-03-25T13:20:22.575Z,24.63
2018-03-25T13:22:57.624Z,22.33
2018-03-25T13:25:31.965Z,23.83
2018-03-25T13:28:07.201Z,23.17
2018-03-25T13:30:41.515Z,24.37
2018-03-25T13:33:16.873Z,23.90
2018-03-25T13:35:51.411Z,22.40
2018-03-25T13:38:26.240Z,22.47
2018-03-25T13:41:01.112Z,21.30
2018-03-25T13:43:35.986Z,22.43
2018-03-25T13:46:10.939Z,21.20
2018-03-25T13:48:45.716Z,22.50
2018-03-25T13:51:20.436Z,25.30
2018-03-25T13:53:55.132Z,18.13
2018-03-25T13:56:29.923Z,21.70
2018-03-25T13:59:11.144Z,18.00
2018-03-25T14:01:45.612Z,20.27
2018-03-25T14:04:20.120Z,23.77
2018-03-25T14:06:54.924Z,24.20
2018-03-25T14:09:29.626Z,21.67
2018-03-25T14:12:04.384Z,22.20
2018-03-25T14:14:38.869Z,21.43
2018-03-25T14:17:13.932Z,24.80
2018-03-25T14:19:48.799Z,22.00
2018-03-25T14:22:23.778Z,21.70
2018-03-25T14:25:04.354Z,22.03
2018-03-25T14:27:39.835Z,24.60
2018-03-25T14:30:15.207Z,24.87
2018-03-25T14:32:49.859Z,24.50
2018-03-25T14:35:24.856Z,23.57
2018-03-25T14:37:59.999Z,19.83
2018-03-25T14:40:34.849Z,24.97
2018-03-25T14:43:09.971Z,23.33
2018-03-25T14:45:44.982Z,23.23
2018-03-25T14:48:20.210Z,25.35
2018-03-25T14:50:55.191Z,21.63
2018-03-25T14:53:29.835Z,18.87
2018-03-25T14:56:04.523Z,25.50
2018-03-25T14:58:39.704Z,22.70
2018-03-25T15:01:14.671Z,22.13
2018-03-25T15:03:50.779Z,16.27
2018-03-25T15:06:25.210Z,21.43
2018-03-25T15:09:01.055Z,23.57
2018-03-25T15:11:36.072Z,24.03
2018-03-25T15:14:10.944Z,29.10
2018-03-25T15:16:45.949Z,21.80
2018-03-25T15:19:21.147Z,23.00
2018-03-25T15:21:56.122Z,21.13
2018-03-25T15:24:31.170Z,17.10
2018-03-25T15:27:05.950Z,25.20
2018-03-25T15:29:40.922Z,21.60
2018-03-25T15:32:16.124Z,25.03
2018-03-25T15:34:51.628Z,22.40
2018-03-25T15:37:26.960Z,21.77
2018-03-25T15:40:02.815Z,22.90
2018-03-25T15:42:37.832Z,25.40
2018-03-25T15:45:12.679Z,24.53
2018-03-25T15:47:47.958Z,22.47
2018-03-25T15:50:22.940Z,19.80
2018-03-25T15:52:57.848Z,30.00
2018-03-25T15:55:33.012Z,24.80
2018-03-25T15:58:08.204Z,23.07
2018-03-25T16:00:42.642Z,23.90
2018-03-25T16:03:17.911Z,22.50
2018-03-25T16:05:52.871Z,21.45
2018-03-25T16:08:27.413Z,19.90
2018-03-25T16:11:03.257Z,24.85
2018-03-25T16:13:38.786Z,24.52
2018-03-25T16:16:13.461Z,23.80
2018-03-25T16:18:48.933Z,26.37
2018-03-25T16:21:23.147Z,21.30
2018-03-25T16:23:58.292Z,17.53
2018-03-25T16:26:33.353Z,21.47
2018-03-25T16:29:21.187Z,22.80
2018-03-25T16:31:56.091Z,15.80
2018-03-25T16:34:30.952Z,15.20
2018-03-25T16:37:06.287Z,16.30
2018-03-25T16:39:40.802Z,19.97
2018-03-25T16:42:16.218Z,20.42
2018-03-25T16:44:51.083Z,21.63
2018-03-25T16:47:25.551Z,20.47
2018-03-25T16:50:00.920Z,18.60
2018-03-25T16:52:35.488Z,20.07
2018-03-25T16:55:10.401Z,19.57
2018-03-25T16:57:45.382Z,21.50
2018-03-25T17:00:20.388Z,18.42
2018-03-25T17:02:55.248Z,18.83
2018-03-25T17:05:30.173Z,20.90
2018-03-25T17:08:04.787Z,18.63
2018-03-25T17:10:39.373Z,21.50
2018-03-25T17:13:16.705Z,18.90
2018-03-25T17:15:52.068Z,18.53
2018-03-25T17:18:26.995Z,21.00
2018-03-25T17:21:03.099Z,19.98
2018-03-25T17:23:38.372Z,19.53
2018-03-25T17:26:13.307Z,20.53
2018-03-25T17:28:47.964Z,20.03
2018-03-25T17:31:23.041Z,20.20
2018-03-25T17:33:58.075Z,19.30
2018-03-25T17:36:33.088Z,21.90
2018-03-25T17:39:07.088Z,24.60
2018-03-25T17:41:41.989Z,21.10
2018-03-25T17:44:17.359Z,19.87
2018-03-25T17:46:52.124Z,18.10
2018-03-25T17:49:26.826Z,19.67
2018-03-25T17:52:03.270Z,19.90
2018-03-25T17:54:38.113Z,22.47
2018-03-25T17:57:13.356Z,18.75
2018-03-25T17:59:47.826Z,20.00
2018-03-25T18:02:22.659Z,18.77
2018-03-25T18:04:58.139Z,21.90
2018-03-25T18:07:32.520Z,19.97
2018-03-25T18:10:07.138Z,22.90
2018-03-25T18:12:42.161Z,24.93
2018-03-25T18:15:17.192Z,25.85
2018-03-25T18:17:51.835Z,27.83
2018-03-25T18:20:26.605Z,23.07
2018-03-25T18:23:01.728Z,24.07
2018-03-25T18:25:36.591Z,25.70
2018-03-25T18:28:11.481Z,30.17
2018-03-25T18:30:46.532Z,28.03
2018-03-25T18:33:21.656Z,27.97
2018-03-25T18:35:56.581Z,28.73
2018-03-25T18:38:31.828Z,25.33
2018-03-25T18:41:07.191Z,26.65
2018-03-25T18:43:42.353Z,30.13
2018-03-25T18:46:17.383Z,28.15
2018-03-25T18:48:52.212Z,26.40
2018-03-25T18:51:27.203Z,25.70
2018-03-25T18:54:03.381Z,24.60
2018-03-25T18:56:38.412Z,28.47
2018-03-25T18:59:13.384Z,28.70
2018-03-25T19:01:48.239Z,27.90
2018-03-25T19:04:23.334Z,27.10
2018-03-25T19:06:58.446Z,25.33
2018-03-25T19:09:33.336Z,27.10
2018-03-25T19:12:08.472Z,25.03
2018-03-25T19:14:43.379Z,28.20
2018-03-25T19:17:17.868Z,26.73
2018-03-25T19:19:52.820Z,26.77
2018-03-25T19:22:28.196Z,25.12
2018-03-25T19:25:03.779Z,27.05
2018-03-25T19:27:39.051Z,26.10
2018-03-25T19:30:13.711Z,22.80
2018-03-25T19:32:48.831Z,29.00
2018-03-25T19:35:23.764Z,24.03
2018-03-25T19:37:58.748Z,25.50
2018-03-25T19:40:33.767Z,24.80
2018-03-25T19:43:08.741Z,29.25
2018-03-25T19:45:43.180Z,24.00
2018-03-25T19:48:18.715Z,23.67
2018-03-25T19:50:53.094Z,24.87
2018-03-25T19:53:28.411Z,26.23
2018-03-25T19:56:03.743Z,26.92
2018-03-25T19:58:39.343Z,27.23
2018-03-25T20:01:15.383Z,26.95
2018-03-25T20:03:50.849Z,28.03
2018-03-25T20:06:25.915Z,26.57
2018-03-25T20:09:01.445Z,26.83
2018-03-25T20:11:36.078Z,28.07
2018-03-25T20:14:11.652Z,27.77
2018-03-25T20:16:46.460Z,28.93
2018-03-25T20:19:21.389Z,28.73
2018-03-25T20:21:56.569Z,32.83
2018-03-25T20:24:31.156Z,33.27
2018-03-25T20:27:06.725Z,30.20
2018-03-25T20:29:41.732Z,28.30
2018-03-25T20:32:16.862Z,26.83
2018-03-25T20:34:52.511Z,28.30
2018-03-25T20:37:28.609Z,26.77
2018-03-25T20:40:03.805Z,24.73
2018-03-25T20:42:38.555Z,28.60
2018-03-25T20:45:13.816Z,30.75
2018-03-25T20:47:49.237Z,28.17
2018-03-25T20:53:21.893Z,32.38
2018-03-25T20:55:57.419Z,28.90
2018-03-25T20:58:32.067Z,29.13
2018-03-25T21:01:06.951Z,29.30
2018-03-25T21:03:41.802Z,30.20
2018-03-25T21:06:16.826Z,27.62
2018-03-25T21:08:51.983Z,33.77
2018-03-25T21:11:26.951Z,27.10
2018-03-25T21:14:02.414Z,32.08
2018-03-25T21:16:37.046Z,29.27
2018-03-25T21:19:11.898Z,27.83
2018-03-25T21:21:46.581Z,29.73
2018-03-25T21:24:21.653Z,29.80
2018-03-25T21:26:57.138Z,29.20
2018-03-25T21:29:32.158Z,32.50
2018-03-25T21:32:07.103Z,28.50
2018-03-25T21:34:42.619Z,29.27
2018-03-25T21:37:17.746Z,28.23
2018-03-25T21:39:53.004Z,32.90
2018-03-25T21:42:28.044Z,36.30
2018-03-25T21:45:03.455Z,29.83
2018-03-25T21:47:38.310Z,29.40
2018-03-25T21:50:13.790Z,26.27
2018-03-25T21:52:48.786Z,29.67
2018-03-25T21:55:23.786Z,29.63
2018-03-25T21:57:58.789Z,29.10
2018-03-25T22:00:33.654Z,29.03
2018-03-25T22:03:07.965Z,32.00
2018-03-25T22:05:42.927Z,29.10
2018-03-25T22:08:17.993Z,31.07
2018-03-25T22:10:52.802Z,26.57
2018-03-25T22:13:27.725Z,29.83
2018-03-25T22:16:03.740Z,28.58
2018-03-25T22:18:50.145Z,28.70
2018-03-25T22:21:24.888Z,29.93
2018-03-25T22:24:00.072Z,31.77
2018-03-25T22:26:34.855Z,31.93
2018-03-25T22:29:09.956Z,31.50
2018-03-25T22:31:45.137Z,31.10
2018-03-25T22:34:19.794Z,31.37
2018-03-25T22:36:54.832Z,29.40
2018-03-25T22:39:30.036Z,29.60
2018-03-25T22:42:04.967Z,31.70
2018-03-25T22:44:39.875Z,31.87
2018-03-25T22:47:15.032Z,31.08
2018-03-25T22:49:49.731Z,31.90
2018-03-25T22:52:24.793Z,37.95
2018-03-25T22:54:59.351Z,33.57
2018-03-25T22:57:34.403Z,34.40
2018-03-25T23:00:09.478Z,37.03
2018-03-25T23:02:44.300Z,38.13
2018-03-25T23:05:19.289Z,30.67
2018-03-25T23:07:54.368Z,37.90
2018-03-25T23:10:29.562Z,40.10
2018-03-25T23:13:04.218Z,41.17
2018-03-25T23:15:39.073Z,39.37
2018-03-25T23:18:14.050Z,41.92
2018-03-25T23:20:48.927Z,42.77
2018-03-25T23:23:23.866Z,44.30
2018-03-25T23:25:58.866Z,42.30
2018-03-25T23:28:33.925Z,46.90
2018-03-25T23:31:08.847Z,43.40
2018-03-25T23:33:43.402Z,46.67
2018-03-25T23:36:18.386Z,44.13
2018-03-25T23:38:53.451Z,46.73
2018-03-25T23:41:28.391Z,43.87
2018-03-25T23:44:04.219Z,44.60
2018-03-25T23:46:38.898Z,42.40
2018-03-25T23:49:13.826Z,43.67
2018-03-25T23:51:48.864Z,40.37
2018-03-25T23:54:23.946Z,43.17
2018-03-25T23:56:58.765Z,38.73
2018-03-25T23:59:33.963Z,46.77
